createdAt,value
2023-04-18T00:01:48.997Z,5.9
2023-04-18T00:04:49.089Z,5.9
2023-04-18T00:07:48.974Z,5.9
2023-04-18T00:10:48.991Z,5.9
2023-04-18T00:13:48.966Z,5.9
2023-04-18T00:16:48.997Z,5.9
2023-04-18T00:19:48.970Z,5.8
2023-04-18T00:22:48.998Z,5.9
2023-04-18T00:25:48.983Z,5.9
2023-04-18T00:28:48.975Z,5.8
2023-04-18T00:31:48.975Z,5.9
2023-04-18T00:34:48.974Z,5.9
2023-04-18T00:37:49.014Z,5.9
2023-04-18T00:40:48.981Z,5.8
2023-04-18T00:43:48.991Z,5.8
2023-04-18T00:46:48.979Z,5.8
2023-04-18T00:49:48.988Z,5.8
2023-04-18T00:52:49.004Z,5.8
2023-04-18T00:55:49.005Z,5.8
2023-04-18T00:58:48.995Z,5.8
2023-04-18T01:01:49.062Z,5.8
2023-04-18T01:04:49.003Z,5.8
2023-04-18T01:07:49.017Z,5.8
2023-04-18T01:10:49.034Z,5.7
2023-04-18T01:13:48.988Z,5.7
2023-04-18T01:16:49.014Z,5.7
2023-04-18T01:19:49.015Z,5.8
2023-04-18T01:22:49.029Z,5.8
2023-04-18T01:25:49.020Z,5.7
2023-04-18T01:28:49.011Z,5.7
2023-04-18T01:31:49.050Z,5.7
2023-04-18T01:34:49.018Z,5.8
2023-04-18T01:37:49.034Z,5.8
2023-04-18T01:40:49.034Z,5.8
2023-04-18T01:43:49.025Z,5.8
2023-04-18T01:46:49.046Z,5.8
2023-04-18T01:49:49.043Z,5.8
2023-04-18T01:52:49.039Z,5.8
2023-04-18T01:55:49.055Z,5.8
2023-04-18T01:58:49.033Z,5.8
2023-04-18T02:01:49.099Z,5.8
2023-04-18T02:04:49.053Z,5.8
2023-04-18T02:07:49.058Z,5.8
2023-04-18T02:10:49.063Z,5.8
2023-04-18T02:13:49.053Z,5.8
2023-04-18T02:16:49.090Z,5.8
2023-04-18T02:19:49.075Z,5.8
2023-04-18T02:22:49.086Z,5.8
2023-04-18T02:25:49.087Z,5.8
2023-04-18T02:28:49.082Z,5.8
2023-04-18T02:31:49.086Z,5.8
2023-04-18T02:34:49.081Z,5.8
2023-04-18T02:37:49.094Z,5.8
2023-04-18T02:40:49.099Z,5.8
2023-04-18T02:43:49.099Z,5.8
2023-04-18T02:46:49.106Z,5.8
2023-04-18T02:49:49.096Z,5.8
2023-04-18T02:52:49.116Z,5.8
2023-04-18T02:55:49.113Z,5.8
2023-04-18T02:58:49.118Z,5.8
2023-04-18T03:01:49.161Z,5.8
2023-04-18T03:04:49.180Z,5.8
2023-04-18T03:07:49.132Z,5.8
2023-04-18T03:10:49.138Z,5.8
2023-04-18T03:13:49.122Z,5.8
2023-04-18T03:16:49.136Z,5.8
2023-04-18T03:19:49.141Z,5.8
2023-04-18T03:22:49.180Z,5.8
2023-04-18T03:25:49.166Z,5.8
2023-04-18T03:28:49.158Z,5.8
2023-04-18T03:31:49.211Z,5.8
2023-04-18T03:34:49.176Z,5.8
2023-04-18T03:37:49.167Z,5.8
2023-04-18T03:40:49.167Z,5.7
2023-04-18T03:43:49.165Z,5.8
2023-04-18T03:46:49.164Z,5.8
2023-04-18T03:49:49.166Z,5.8
2023-04-18T03:52:49.183Z,5.7
2023-04-18T03:55:49.186Z,5.7
2023-04-18T03:58:49.179Z,5.7
2023-04-18T04:01:49.191Z,5.7
2023-04-18T04:04:49.246Z,5.7
2023-04-18T04:07:49.212Z,5.7
2023-04-18T04:10:49.199Z,5.7
2023-04-18T04:13:49.196Z,5.7
2023-04-18T04:16:49.229Z,5.6
2023-04-18T04:19:49.202Z,5.7
2023-04-18T04:22:49.230Z,5.6
2023-04-18T04:25:49.218Z,5.6
2023-04-18T04:28:49.218Z,5.6
2023-04-18T04:31:49.241Z,5.6
2023-04-18T04:34:49.220Z,5.6
2023-04-18T04:37:49.228Z,5.6
2023-04-18T04:40:49.234Z,5.6
2023-04-18T04:43:49.222Z,5.6
2023-04-18T04:46:49.229Z,5.6
2023-04-18T04:49:49.234Z,5.6
2023-04-18T04:52:49.245Z,5.6
2023-04-18T04:55:49.247Z,5.6
2023-04-18T04:58:49.240Z,5.6
2023-04-18T05:01:49.313Z,5.6
2023-04-18T05:04:49.259Z,5.6
2023-04-18T05:07:49.263Z,5.6
2023-04-18T05:10:49.274Z,5.6
2023-04-18T05:13:49.284Z,5.6
2023-04-18T05:16:49.325Z,5.6
2023-04-18T05:19:49.284Z,5.7
2023-04-18T05:22:49.305Z,5.7
2023-04-18T05:25:49.290Z,5.8
2023-04-18T05:28:49.298Z,5.7
2023-04-18T05:31:49.290Z,5.7
2023-04-18T05:34:49.291Z,5.7
2023-04-18T05:37:49.310Z,5.8
2023-04-18T05:40:49.325Z,5.8
2023-04-18T05:43:58.018Z,5.9
2023-04-18T05:46:49.325Z,5.9
2023-04-18T05:49:49.335Z,6.1
2023-04-18T05:52:49.352Z,6.1
2023-04-18T05:55:49.350Z,6.1
2023-04-18T05:58:49.347Z,6.2
2023-04-18T06:01:49.365Z,6.3
2023-04-18T06:04:49.437Z,6.3
2023-04-18T06:07:49.376Z,6.3
2023-04-18T06:10:49.374Z,6.2
2023-04-18T06:13:49.384Z,6.3
2023-04-18T06:16:49.378Z,6.4
2023-04-18T06:19:49.384Z,6.6
2023-04-18T06:22:49.407Z,6.6
2023-04-18T06:25:49.402Z,6.8
2023-04-18T06:28:49.399Z,6.9
2023-04-18T06:31:49.411Z,6.9
2023-04-18T06:34:49.408Z,7
2023-04-18T06:37:49.429Z,7.1
2023-04-18T06:40:49.428Z,7.2
2023-04-18T06:44:01.841Z,7.1
2023-04-18T06:46:49.435Z,7.1
2023-04-18T06:49:49.437Z,7.1
2023-04-18T06:52:49.453Z,7.1
2023-04-18T06:55:49.453Z,7.1
2023-04-18T06:58:49.458Z,7.2
2023-04-18T07:01:49.455Z,7.4
2023-04-18T07:04:49.461Z,7.5
2023-04-18T07:07:49.484Z,7.8
2023-04-18T07:10:49.480Z,7.9
2023-04-18T07:13:49.474Z,7.9
2023-04-18T07:16:49.539Z,8.1
2023-04-18T07:19:49.493Z,8.3
2023-04-18T07:22:49.515Z,8.4
2023-04-18T07:25:49.511Z,8.6
2023-04-18T07:28:49.519Z,8.6
2023-04-18T07:31:49.509Z,8.9
2023-04-18T07:34:49.506Z,9.1
2023-04-18T07:37:49.525Z,9.1
2023-04-18T07:40:49.529Z,9.3
2023-04-18T07:43:49.524Z,9.4
2023-04-18T07:46:49.637Z,9.6
2023-04-18T07:49:49.536Z,9.8
2023-04-18T07:52:49.544Z,9.9
2023-04-18T07:55:49.550Z,10
2023-04-18T07:58:49.536Z,10.2
2023-04-18T08:01:49.540Z,10.3
2023-04-18T08:04:49.684Z,10.3
2023-04-18T08:07:49.568Z,10.3
2023-04-18T08:10:49.578Z,10.3
2023-04-18T08:13:49.574Z,10.4
2023-04-18T08:16:49.567Z,10.6
2023-04-18T08:19:49.576Z,10.8
2023-04-18T08:23:04.652Z,10.8
2023-04-18T08:25:49.596Z,11.1
2023-04-18T08:28:49.592Z,11.4
2023-04-18T08:31:49.601Z,11.6
2023-04-18T08:34:49.586Z,11.7
2023-04-18T08:37:49.610Z,11.8
2023-04-18T08:40:49.602Z,11.8
2023-04-18T08:43:49.605Z,11.9
2023-04-18T08:46:49.604Z,11.9
2023-04-18T08:49:49.607Z,11.8
2023-04-18T08:52:49.619Z,11.7
2023-04-18T08:55:49.626Z,11.7
2023-04-18T08:58:49.613Z,11.5
2023-04-18T09:01:49.664Z,11.1
2023-04-18T09:04:49.639Z,11
2023-04-18T09:07:49.668Z,11.2
2023-04-18T09:10:49.652Z,11.1
2023-04-18T09:13:49.646Z,11
2023-04-18T09:16:49.662Z,10.8
2023-04-18T09:19:49.651Z,10.7
2023-04-18T09:22:49.710Z,10.7
2023-04-18T09:25:49.677Z,10.7
2023-04-18T09:28:50.268Z,10.6
2023-04-18T09:31:49.669Z,10.6
2023-04-18T09:34:49.681Z,10.7
2023-04-18T09:37:49.697Z,10.8
2023-04-18T09:40:49.694Z,10.9
2023-04-18T09:43:49.690Z,11.2
2023-04-18T09:46:49.746Z,11.4
2023-04-18T09:49:49.705Z,11.5
2023-04-18T09:52:49.712Z,11.4
2023-04-18T09:55:49.721Z,11.2
2023-04-18T09:58:49.737Z,11
2023-04-18T10:01:49.749Z,11.1
2023-04-18T10:04:49.801Z,11.1
2023-04-18T10:07:49.717Z,11.1
2023-04-18T10:10:49.731Z,11.2
2023-04-18T10:13:49.728Z,11.4
2023-04-18T10:16:50.556Z,11.4
2023-04-18T10:19:49.728Z,11.4
2023-04-18T10:22:49.739Z,11.6
2023-04-18T10:25:49.757Z,11.7
2023-04-18T10:28:49.740Z,11.9
2023-04-18T10:31:49.777Z,11.9
2023-04-18T10:34:49.739Z,11.9
2023-04-18T10:37:49.760Z,12
2023-04-18T10:40:49.766Z,12.2
2023-04-18T10:43:49.754Z,12.4
2023-04-18T10:46:49.817Z,12.7
2023-04-18T10:49:49.767Z,12.8
2023-04-18T10:52:49.775Z,12.7
2023-04-18T10:55:49.778Z,12.8
2023-04-18T10:58:49.768Z,12.9
2023-04-18T11:01:49.767Z,13.1
2023-04-18T11:04:49.791Z,13.2
2023-04-18T11:07:49.797Z,13.5
2023-04-18T11:10:49.796Z,13.9
2023-04-18T11:13:49.828Z,14
2023-04-18T11:16:49.816Z,14.1
2023-04-18T11:19:49.806Z,13.8
2023-04-18T11:22:49.808Z,13.5
2023-04-18T11:25:49.815Z,13.3
2023-04-18T11:28:49.799Z,13.3
2023-04-18T11:31:49.863Z,13.2
2023-04-18T11:34:49.816Z,13.2
2023-04-18T11:37:49.835Z,13.2
2023-04-18T11:40:49.834Z,13.2
2023-04-18T11:43:49.817Z,13.1
2023-04-18T11:46:49.831Z,13
2023-04-18T11:49:49.826Z,12.9
2023-04-18T11:52:49.840Z,12.7
2023-04-18T11:55:50.068Z,12.4
2023-04-18T11:58:49.838Z,12.5
2023-04-18T12:01:50.086Z,13.1
2023-04-18T12:04:50.112Z,14
2023-04-18T12:07:49.970Z,14.5
2023-04-18T12:10:49.860Z,14.8
2023-04-18T12:13:49.870Z,15
2023-04-18T12:16:49.870Z,15
2023-04-18T12:19:49.966Z,14.9
2023-04-18T12:22:49.940Z,15.1
2023-04-18T12:25:49.887Z,14.9
2023-04-18T12:28:49.892Z,14.7
2023-04-18T12:31:49.958Z,14.6
2023-04-18T12:34:49.940Z,14.7
2023-04-18T12:37:49.930Z,14.9
2023-04-18T12:40:49.926Z,15
2023-04-18T12:43:49.942Z,14.8
2023-04-18T12:46:49.973Z,15
2023-04-18T12:49:49.943Z,15.3
2023-04-18T12:52:49.969Z,15.2
2023-04-18T12:55:49.967Z,15.1
2023-04-18T12:58:49.972Z,15
2023-04-18T13:01:50.000Z,14.9
2023-04-18T13:04:50.090Z,14.8
2023-04-18T13:07:50.001Z,14.6
2023-04-18T13:10:50.005Z,14.3
2023-04-18T13:13:50.022Z,14.2
2023-04-18T13:16:50.041Z,14
2023-04-18T13:19:50.032Z,14.1
2023-04-18T13:22:50.053Z,14.6
2023-04-18T13:25:50.048Z,15
2023-04-18T13:28:50.059Z,15.3
2023-04-18T13:31:50.130Z,15.2
2023-04-18T13:34:50.090Z,14.9
2023-04-18T13:37:50.095Z,14.7
2023-04-18T13:40:55.797Z,14.5
2023-04-18T13:43:50.106Z,14.4
2023-04-18T13:46:50.116Z,14.3
2023-04-18T13:49:50.127Z,14.2
2023-04-18T13:52:50.132Z,14.1
2023-04-18T13:55:50.136Z,14.1
2023-04-18T13:58:50.145Z,14.1
2023-04-18T14:01:50.218Z,14.2
2023-04-18T14:04:50.270Z,14.3
2023-04-18T14:07:50.173Z,14.2
2023-04-18T14:10:50.181Z,14.1
2023-04-18T14:13:50.190Z,14.1
2023-04-18T14:16:50.205Z,14.3
2023-04-18T14:19:50.211Z,14.4
2023-04-18T14:22:52.441Z,14.3
2023-04-18T14:25:50.234Z,14.2
2023-04-18T14:28:50.256Z,14.1
2023-04-18T14:31:50.268Z,13.9
2023-04-18T14:34:50.264Z,13.7
2023-04-18T14:37:50.290Z,13.5
2023-04-18T14:40:50.292Z,13.4
2023-04-18T14:43:50.315Z,13.3
2023-04-18T14:46:50.337Z,13.3
2023-04-18T14:49:50.323Z,13.3
2023-04-18T14:52:50.349Z,13.2
2023-04-18T14:55:50.333Z,13.2
2023-04-18T14:58:50.349Z,13.1
2023-04-18T15:01:50.364Z,13.1
2023-04-18T15:04:50.447Z,13.1
2023-04-18T15:07:50.388Z,13.1
2023-04-18T15:10:50.409Z,13.2
2023-04-18T15:13:50.417Z,13.4
2023-04-18T15:16:50.532Z,13.6
2023-04-18T15:19:50.390Z,13.7
2023-04-18T15:22:50.403Z,13.7
2023-04-18T15:25:50.396Z,13.8
2023-04-18T15:28:50.395Z,13.8
2023-04-18T15:31:50.426Z,13.8
2023-04-18T15:34:50.431Z,13.8
2023-04-18T15:37:50.428Z,13.7
2023-04-18T15:40:50.414Z,13.7
2023-04-18T15:43:50.421Z,13.6
2023-04-18T15:46:50.421Z,13.7
2023-04-18T15:49:50.441Z,13.6
2023-04-18T15:52:50.454Z,13.6
2023-04-18T15:55:50.446Z,13.5
2023-04-18T15:58:50.445Z,13.4
2023-04-18T16:01:50.463Z,13.3
2023-04-18T16:04:50.497Z,13.4
2023-04-18T16:07:50.460Z,13.3
2023-04-18T16:10:50.456Z,13.3
2023-04-18T16:13:50.464Z,13.2
2023-04-18T16:16:50.473Z,13.2
2023-04-18T16:19:50.471Z,13.3
2023-04-18T16:22:50.484Z,13.3
2023-04-18T16:25:50.485Z,13.3
2023-04-18T16:28:50.487Z,13.4
2023-04-18T16:31:50.576Z,13.4
2023-04-18T16:34:50.504Z,13.5
2023-04-18T16:37:50.533Z,13.4
2023-04-18T16:40:50.518Z,13.4
2023-04-18T16:43:50.512Z,13.4
2023-04-18T16:46:50.558Z,13.3
2023-04-18T16:49:50.525Z,13.3
2023-04-18T16:52:50.538Z,13.3
2023-04-18T16:55:50.544Z,13.3
2023-04-18T16:58:50.542Z,13.2
2023-04-18T17:01:50.580Z,13.1
2023-04-18T17:04:50.566Z,13
2023-04-18T17:07:50.562Z,12.9
2023-04-18T17:10:50.554Z,12.9
2023-04-18T17:13:50.566Z,12.9
2023-04-18T17:16:52.909Z,12.8
2023-04-18T17:19:50.577Z,12.8
2023-04-18T17:22:50.590Z,12.8
2023-04-18T17:25:50.593Z,12.7
2023-04-18T17:28:50.593Z,12.7
2023-04-18T17:31:50.615Z,12.7
2023-04-18T17:34:50.595Z,12.7
2023-04-18T17:37:50.604Z,12.6
2023-04-18T17:40:50.593Z,12.6
2023-04-18T17:43:50.596Z,12.6
2023-04-18T17:46:50.688Z,12.5
2023-04-18T17:49:50.613Z,12.5
2023-04-18T17:52:50.618Z,12.5
2023-04-18T17:55:50.622Z,12.4
2023-04-18T17:58:50.623Z,12.4
2023-04-18T18:01:50.650Z,12.4
2023-04-18T18:04:50.641Z,12.3
2023-04-18T18:07:50.661Z,12.3
2023-04-18T18:10:50.654Z,12.2
2023-04-18T18:13:50.663Z,12.2
2023-04-18T18:16:50.707Z,12.1
2023-04-18T18:19:50.669Z,12
2023-04-18T18:22:50.687Z,12
2023-04-18T18:25:50.671Z,11.9
2023-04-18T18:28:50.674Z,11.9
2023-04-18T18:31:50.717Z,11.8
2023-04-18T18:34:50.694Z,11.8
2023-04-18T18:37:50.695Z,11.7
2023-04-18T18:40:50.695Z,11.7
2023-04-18T18:43:50.699Z,11.7
2023-04-18T18:46:50.821Z,11.7
2023-04-18T18:49:50.735Z,11.6
2023-04-18T18:52:50.732Z,11.6
2023-04-18T18:55:50.722Z,11.6
2023-04-18T18:58:50.720Z,11.6
2023-04-18T19:01:50.745Z,11.6
2023-04-18T19:04:50.783Z,11.5
2023-04-18T19:07:50.761Z,11.5
2023-04-18T19:10:50.753Z,11.4
2023-04-18T19:13:50.765Z,11.4
2023-04-18T19:16:50.758Z,11.4
2023-04-18T19:19:50.767Z,11.4
2023-04-18T19:22:50.793Z,11.4
2023-04-18T19:25:50.780Z,11.3
2023-04-18T19:28:50.784Z,11.3
2023-04-18T19:31:50.809Z,11.3
2023-04-18T19:34:50.801Z,11.2
2023-04-18T19:37:50.832Z,11.2
2023-04-18T19:40:50.801Z,11.1
2023-04-18T19:43:50.809Z,11
2023-04-18T19:46:50.856Z,11
2023-04-18T19:49:50.891Z,10.9
2023-04-18T19:52:50.905Z,10.9
2023-04-18T19:55:50.894Z,10.8
2023-04-18T19:58:50.929Z,10.8
2023-04-18T20:01:50.898Z,10.7
2023-04-18T20:04:51.165Z,10.6
2023-04-18T20:07:50.934Z,10.6
2023-04-18T20:10:50.899Z,10.6
2023-04-18T20:13:50.908Z,10.5
2023-04-18T20:16:50.942Z,10.5
2023-04-18T20:19:50.906Z,10.5
2023-04-18T20:22:50.910Z,10.4
2023-04-18T20:25:50.902Z,10.4
2023-04-18T20:28:50.917Z,10.4
2023-04-18T20:31:50.908Z,10.3
2023-04-18T20:34:50.922Z,10.3
2023-04-18T20:37:50.914Z,10.3
2023-04-18T20:40:50.915Z,10.3
2023-04-18T20:43:50.913Z,10.2
2023-04-18T20:46:50.917Z,10.2
2023-04-18T20:49:50.914Z,10.1
2023-04-18T20:52:50.917Z,10.1
2023-04-18T20:55:50.927Z,10
2023-04-18T20:58:50.936Z,9.9
2023-04-18T21:01:50.954Z,9.9
2023-04-18T21:04:50.972Z,9.8
2023-04-18T21:07:50.936Z,9.8
2023-04-18T21:10:50.925Z,9.7
2023-04-18T21:13:50.924Z,9.7
2023-04-18T21:16:50.925Z,9.7
2023-04-18T21:19:50.966Z,9.7
2023-04-18T21:22:51.005Z,9.7
2023-04-18T21:25:50.954Z,9.7
2023-04-18T21:28:50.934Z,9.7
2023-04-18T21:31:50.969Z,9.6
2023-04-18T21:34:50.929Z,9.6
2023-04-18T21:37:50.938Z,9.6
2023-04-18T21:40:50.933Z,9.6
2023-04-18T21:43:50.935Z,9.6
2023-04-18T21:46:50.936Z,9.6
2023-04-18T21:49:50.942Z,9.6
2023-04-18T21:52:50.953Z,9.5
2023-04-18T21:55:50.941Z,9.5
2023-04-18T21:58:50.954Z,9.4
2023-04-18T22:01:50.939Z,9.4
2023-04-18T22:04:50.950Z,9.4
2023-04-18T22:07:57.808Z,9.3
2023-04-18T22:10:50.965Z,9.3
2023-04-18T22:13:50.977Z,9.2
2023-04-18T22:16:51.029Z,9.2
2023-04-18T22:19:50.960Z,9.1
2023-04-18T22:22:50.980Z,9.1
2023-04-18T22:25:50.968Z,9
2023-04-18T22:28:50.975Z,9
2023-04-18T22:31:50.980Z,8.9
2023-04-18T22:34:50.978Z,8.8
2023-04-18T22:37:51.001Z,8.8
2023-04-18T22:40:50.991Z,8.8
2023-04-18T22:43:50.989Z,8.7
2023-04-18T22:46:50.989Z,8.6
2023-04-18T22:49:51.001Z,8.5
2023-04-18T22:52:51.020Z,8.4
2023-04-18T22:55:51.026Z,8.3
2023-04-18T22:58:51.022Z,8.1
2023-04-18T23:01:51.081Z,7.9
2023-04-18T23:04:51.096Z,7.8
2023-04-18T23:07:51.057Z,7.7
2023-04-18T23:10:51.048Z,7.5
2023-04-18T23:13:51.056Z,7.4
2023-04-18T23:16:51.062Z,7.2
2023-04-18T23:19:51.070Z,7.1
2023-04-18T23:22:51.085Z,7
2023-04-18T23:25:51.083Z,6.9
2023-04-18T23:28:51.105Z,6.7
2023-04-18T23:31:51.154Z,6.6
2023-04-18T23:34:51.103Z,6.5
2023-04-18T23:37:51.119Z,6.5
2023-04-18T23:40:51.106Z,6.4
2023-04-18T23:43:51.117Z,6.3
2023-04-18T23:46:51.162Z,6.2
2023-04-18T23:49:51.125Z,6
2023-04-18T23:52:51.170Z,5.9
2023-04-18T23:55:51.287Z,5.9
2023-04-18T23:58:51.152Z,5.7
